Time;durP1;ratioP1;P1;durP2;ratioP2;P2;SDS_P1;SDS_P2;PMS_P1;PMS_P2;Temp;Humidity;BMP_temperature;BMP_pressure;BME280_temperature;BME280_humidity;BME280_pressure;Samples;Min_cycle;Max_cycle;Signal;HPM_P1;HPM_P2
2022/12/05 00:00:00;;;;;;;3.5;3.4;;;;;;;2.5;100.0;101540;;;;
2022/12/05 00:01:10;;;;;;;3.5;3.4;;;;;;;2.5;100.0;101540;;;;
2022/12/05 00:02:00;;;;;;;3.5;3.4;;;;;;;2.5;100.0;101530;;;;
2022/12/05 00:03:04;;;;;;;3.5;3.4;;;;;;;2.5;100.0;101530;;;;
2022/12/05 00:04:01;;;;;;;3.5;3.4;;;;;;;2.5;100.0;101530;;;;
2022/12/05 00:05:00;;;;;;;3.5;3.4;;;;;;;2.5;100.0;101530;;;;
2022/12/05 00:06:00;;;;;;;3.5;3.4;;;;;;;2.5;100.0;101540;;;;
2022/12/05 00:07:00;;;;;;;3.5;3.4;;;;;;;2.5;100.0;101540;;;;
2022/12/05 00:08:00;;;;;;;3.1;3.0;;;;;;;2.5;100.0;101540;;;;
2022/12/05 00:09:00;;;;;;;3.1;3.0;;;;;;;2.5;100.0;101540;;;;
2022/12/05 00:10:00;;;;;;;3.1;3.0;;;;;;;2.5;100.0;101540;;;;
2022/12/05 00:11:00;;;;;;;3.1;3.0;;;;;;;2.5;100.0;101540;;;;
2022/12/05 00:12:00;;;;;;;3.1;3.0;;;;;;;2.5;100.0;101540;;;;
2022/12/05 00:13:00;;;;;;;3.1;3.0;;;;;;;2.5;100.0;101540;;;;
2022/12/05 00:14:01;;;;;;;3.1;3.0;;;;;;;2.6;100.0;101540;;;;
2022/12/05 00:15:00;;;;;;;3.1;3.0;;;;;;;2.6;100.0;101540;;;;
2022/12/05 00:16:00;;;;;;;3.1;3.0;;;;;;;2.7;100.0;101540;;;;
2022/12/05 00:17:00;;;;;;;3.1;3.0;;;;;;;2.7;100.0;101540;;;;
2022/12/05 00:18:00;;;;;;;3.1;3.0;;;;;;;2.7;100.0;101540;;;;
2022/12/05 00:19:00;;;;;;;3.1;3.0;;;;;;;2.7;100.0;101540;;;;
2022/12/05 00:20:00;;;;;;;3.1;3.0;;;;;;;2.7;100.0;101540;;;;
2022/12/05 00:21:00;;;;;;;3.1;3.0;;;;;;;2.7;100.0;101540;;;;
2022/12/05 00:22:00;;;;;;;3.1;3.0;;;;;;;2.7;100.0;101540;;;;
2022/12/05 00:23:00;;;;;;;3.1;3.0;;;;;;;2.7;100.0;101540;;;;
2022/12/05 00:24:01;;;;;;;3.1;3.0;;;;;;;2.8;100.0;101540;;;;
2022/12/05 00:25:00;;;;;;;3.1;3.0;;;;;;;2.8;100.0;101540;;;;
2022/12/05 00:26:01;;;;;;;3.1;3.0;;;;;;;2.8;100.0;101540;;;;
2022/12/05 00:27:00;;;;;;;3.1;3.0;;;;;;;2.8;100.0;101540;;;;
2022/12/05 00:28:00;;;;;;;3.0;2.9;;;;;;;2.8;100.0;101530;;;;
2022/12/05 00:29:00;;;;;;;3.0;2.9;;;;;;;2.8;100.0;101530;;;;
2022/12/05 00:30:01;;;;;;;3.0;2.9;;;;;;;2.8;100.0;101530;;;;
2022/12/05 00:31:04;;;;;;;3.0;2.9;;;;;;;2.8;100.0;101530;;;;
2022/12/05 00:32:00;;;;;;;3.0;2.9;;;;;;;2.8;100.0;101530;;;;
2022/12/05 00:33:00;;;;;;;3.0;2.9;;;;;;;2.8;100.0;101530;;;;
2022/12/05 00:34:01;;;;;;;3.0;2.9;;;;;;;2.7;100.0;101530;;;;
2022/12/05 00:35:00;;;;;;;3.0;2.9;;;;;;;2.7;100.0;101530;;;;
2022/12/05 00:36:02;;;;;;;3.0;2.9;;;;;;;2.8;100.0;101530;;;;
2022/12/05 00:37:00;;;;;;;3.0;2.9;;;;;;;2.8;100.0;101530;;;;
2022/12/05 00:38:00;;;;;;;3.0;2.9;;;;;;;2.7;100.0;101530;;;;
2022/12/05 00:39:02;;;;;;;3.0;2.9;;;;;;;2.7;100.0;101530;;;;
2022/12/05 00:40:00;;;;;;;3.0;2.9;;;;;;;2.8;100.0;101520;;;;
2022/12/05 00:41:04;;;;;;;3.0;2.9;;;;;;;2.8;100.0;101520;;;;
2022/12/05 00:42:00;;;;;;;3.0;2.9;;;;;;;2.8;100.0;101520;;;;
2022/12/05 00:43:00;;;;;;;3.0;2.9;;;;;;;2.8;100.0;101520;;;;
2022/12/05 00:44:00;;;;;;;3.0;2.9;;;;;;;2.8;100.0;101520;;;;
2022/12/05 00:45:00;;;;;;;3.0;2.9;;;;;;;2.8;100.0;101520;;;;
2022/12/05 00:46:01;;;;;;;3.0;2.9;;;;;;;2.8;100.0;101520;;;;
2022/12/05 00:47:00;;;;;;;3.0;2.9;;;;;;;2.8;100.0;101520;;;;
2022/12/05 00:48:00;;;;;;;2.6;2.5;;;;;;;2.8;100.0;101520;;;;
2022/12/05 00:49:01;;;;;;;2.6;2.5;;;;;;;2.8;100.0;101520;;;;
2022/12/05 00:50:00;;;;;;;2.6;2.5;;;;;;;2.8;100.0;101520;;;;
2022/12/05 00:51:02;;;;;;;2.6;2.5;;;;;;;2.8;100.0;101520;;;;
2022/12/05 00:52:00;;;;;;;2.6;2.5;;;;;;;2.6;100.0;101520;;;;
2022/12/05 00:53:00;;;;;;;2.6;2.5;;;;;;;2.6;100.0;101520;;;;
2022/12/05 00:54:01;;;;;;;2.6;2.5;;;;;;;2.7;100.0;101520;;;;
2022/12/05 00:55:00;;;;;;;2.6;2.5;;;;;;;2.7;100.0;101520;;;;
2022/12/05 00:56:01;;;;;;;2.6;2.5;;;;;;;2.8;100.0;101520;;;;
2022/12/05 00:57:00;;;;;;;2.6;2.5;;;;;;;2.8;100.0;101520;;;;
2022/12/05 00:58:00;;;;;;;2.6;2.5;;;;;;;2.8;100.0;101520;;;;
2022/12/05 00:59:00;;;;;;;2.6;2.5;;;;;;;2.8;100.0;101520;;;;
2022/12/05 01:00:00;;;;;;;2.6;2.5;;;;;;;2.9;100.0;101520;;;;
2022/12/05 01:01:10;;;;;;;2.6;2.5;;;;;;;2.9;100.0;101520;;;;
2022/12/05 01:02:00;;;;;;;2.6;2.5;;;;;;;2.9;100.0;101520;;;;
2022/12/05 01:03:00;;;;;;;2.6;2.5;;;;;;;2.9;100.0;101520;;;;
2022/12/05 01:04:02;;;;;;;2.6;2.5;;;;;;;2.8;100.0;101530;;;;
2022/12/05 01:05:00;;;;;;;2.6;2.5;;;;;;;2.8;100.0;101530;;;;
2022/12/05 01:06:00;;;;;;;2.6;2.5;;;;;;;2.8;100.0;101530;;;;
2022/12/05 01:07:00;;;;;;;2.6;2.5;;;;;;;2.8;100.0;101530;;;;
2022/12/05 01:08:00;;;;;;;2.7;2.6;;;;;;;2.8;100.0;101530;;;;
2022/12/05 01:09:00;;;;;;;2.7;2.6;;;;;;;2.8;100.0;101530;;;;
2022/12/05 01:10:00;;;;;;;2.7;2.6;;;;;;;2.8;100.0;101520;;;;
2022/12/05 01:11:01;;;;;;;2.7;2.6;;;;;;;2.8;100.0;101520;;;;
2022/12/05 01:12:00;;;;;;;2.7;2.6;;;;;;;2.8;100.0;101530;;;;
2022/12/05 01:13:00;;;;;;;2.7;2.6;;;;;;;2.8;100.0;101530;;;;
2022/12/05 01:14:00;;;;;;;2.7;2.6;;;;;;;2.8;100.0;101530;;;;
2022/12/05 01:15:00;;;;;;;2.7;2.6;;;;;;;2.8;100.0;101530;;;;
2022/12/05 01:16:00;;;;;;;2.7;2.6;;;;;;;2.8;100.0;101530;;;;
2022/12/05 01:17:00;;;;;;;2.7;2.6;;;;;;;2.8;100.0;101530;;;;
2022/12/05 01:18:00;;;;;;;2.7;2.6;;;;;;;2.8;100.0;101530;;;;
2022/12/05 01:19:01;;;;;;;2.7;2.6;;;;;;;2.8;100.0;101530;;;;
2022/12/05 01:20:00;;;;;;;2.7;2.6;;;;;;;2.7;100.0;101530;;;;
2022/12/05 01:21:03;;;;;;;2.7;2.6;;;;;;;2.7;100.0;101530;;;;
2022/12/05 01:22:00;;;;;;;2.7;2.6;;;;;;;2.7;100.0;101530;;;;
2022/12/05 01:23:00;;;;;;;2.7;2.6;;;;;;;2.7;100.0;101530;;;;
2022/12/05 01:24:00;;;;;;;2.7;2.6;;;;;;;2.8;100.0;101530;;;;
2022/12/05 01:25:00;;;;;;;2.7;2.6;;;;;;;2.8;100.0;101530;;;;
2022/12/05 01:26:03;;;;;;;2.7;2.6;;;;;;;2.9;100.0;101540;;;;
2022/12/05 01:27:00;;;;;;;2.7;2.6;;;;;;;2.9;100.0;101540;;;;
2022/12/05 01:28:00;;;;;;;4.0;3.9;;;;;;;2.8;100.0;101540;;;;
2022/12/05 01:29:00;;;;;;;4.0;3.9;;;;;;;2.8;100.0;101540;;;;
2022/12/05 01:30:00;;;;;;;4.0;3.9;;;;;;;2.7;100.0;101540;;;;
2022/12/05 01:31:04;;;;;;;4.0;3.9;;;;;;;2.7;100.0;101540;;;;
2022/12/05 01:32:00;;;;;;;4.0;3.9;;;;;;;2.7;100.0;101540;;;;
2022/12/05 01:33:00;;;;;;;4.0;3.9;;;;;;;2.7;100.0;101540;;;;
2022/12/05 01:34:01;;;;;;;4.0;3.9;;;;;;;2.8;100.0;101540;;;;
2022/12/05 01:35:00;;;;;;;4.0;3.9;;;;;;;2.8;100.0;101540;;;;
2022/12/05 01:36:01;;;;;;;4.0;3.9;;;;;;;2.8;100.0;101540;;;;
2022/12/05 01:37:00;;;;;;;4.0;3.9;;;;;;;2.8;100.0;101540;;;;
2022/12/05 01:38:00;;;;;;;4.0;3.9;;;;;;;2.9;100.0;101550;;;;
2022/12/05 01:39:00;;;;;;;4.0;3.9;;;;;;;2.9;100.0;101550;;;;
2022/12/05 01:40:00;;;;;;;4.0;3.9;;;;;;;3.0;100.0;101540;;;;
2022/12/05 01:41:05;;;;;;;4.0;3.9;;;;;;;3.0;100.0;101540;;;;
2022/12/05 01:42:00;;;;;;;4.0;3.9;;;;;;;2.9;100.0;101550;;;;
2022/12/05 01:43:00;;;;;;;4.0;3.9;;;;;;;2.9;100.0;101550;;;;
2022/12/05 01:44:03;;;;;;;4.0;3.9;;;;;;;3.0;100.0;101550;;;;
2022/12/05 01:45:03;;;;;;;4.0;3.9;;;;;;;3.0;100.0;101550;;;;
2022/12/05 01:46:00;;;;;;;4.0;3.9;;;;;;;2.9;100.0;101550;;;;
2022/12/05 01:47:00;;;;;;;4.0;3.9;;;;;;;2.9;100.0;101550;;;;
2022/12/05 01:48:02;;;;;;;2.6;2.5;;;;;;;2.9;100.0;101550;;;;
2022/12/05 01:49:04;;;;;;;2.6;2.5;;;;;;;2.9;100.0;101550;;;;
2022/12/05 01:50:00;;;;;;;2.6;2.5;;;;;;;3.0;100.0;101560;;;;
2022/12/05 01:51:01;;;;;;;2.6;2.5;;;;;;;3.0;100.0;101560;;;;
2022/12/05 01:52:03;;;;;;;2.6;2.5;;;;;;;3.0;100.0;101560;;;;
2022/12/05 01:53:01;;;;;;;2.6;2.5;;;;;;;3.0;100.0;101560;;;;
2022/12/05 01:54:01;;;;;;;2.6;2.5;;;;;;;3.0;100.0;101560;;;;
2022/12/05 01:55:03;;;;;;;2.6;2.5;;;;;;;3.0;100.0;101560;;;;
2022/12/05 01:56:00;;;;;;;2.6;2.5;;;;;;;3.1;100.0;101560;;;;
2022/12/05 01:57:02;;;;;;;2.6;2.5;;;;;;;3.1;100.0;101560;;;;
2022/12/05 01:58:01;;;;;;;2.6;2.5;;;;;;;2.9;100.0;101560;;;;
2022/12/05 01:59:01;;;;;;;2.6;2.5;;;;;;;2.9;100.0;101560;;;;
2022/12/05 02:00:03;;;;;;;2.6;2.5;;;;;;;2.9;100.0;101560;;;;
2022/12/05 02:01:00;;;;;;;2.6;2.5;;;;;;;2.9;100.0;101560;;;;
2022/12/05 02:02:00;;;;;;;2.6;2.5;;;;;;;2.9;100.0;101560;;;;
2022/12/05 02:03:04;;;;;;;2.6;2.5;;;;;;;2.9;100.0;101560;;;;
2022/12/05 02:04:00;;;;;;;2.6;2.5;;;;;;;2.9;100.0;101560;;;;
2022/12/05 02:05:02;;;;;;;2.6;2.5;;;;;;;2.9;100.0;101560;;;;
2022/12/05 02:06:00;;;;;;;2.6;2.5;;;;;;;2.9;100.0;101560;;;;
2022/12/05 02:07:00;;;;;;;2.6;2.5;;;;;;;2.9;100.0;101560;;;;
2022/12/05 02:08:02;;;;;;;2.6;2.5;;;;;;;2.9;100.0;101560;;;;
2022/12/05 02:09:00;;;;;;;2.6;2.5;;;;;;;2.9;100.0;101560;;;;
2022/12/05 02:10:00;;;;;;;2.6;2.5;;;;;;;2.8;100.0;101560;;;;
2022/12/05 02:11:00;;;;;;;2.6;2.5;;;;;;;2.8;100.0;101560;;;;
2022/12/05 02:12:01;;;;;;;2.6;2.5;;;;;;;2.9;100.0;101570;;;;
2022/12/05 02:13:04;;;;;;;2.6;2.5;;;;;;;2.9;100.0;101570;;;;
2022/12/05 02:14:03;;;;;;;2.6;2.5;;;;;;;2.9;100.0;101570;;;;
2022/12/05 02:15:10;;;;;;;2.6;2.5;;;;;;;2.9;100.0;101570;;;;
2022/12/05 02:16:00;;;;;;;2.6;2.5;;;;;;;2.9;100.0;101570;;;;
2022/12/05 02:17:01;;;;;;;2.6;2.5;;;;;;;2.9;100.0;101570;;;;
2022/12/05 02:18:10;;;;;;;2.6;2.5;;;;;;;3.1;100.0;101560;;;;
2022/12/05 02:19:10;;;;;;;2.6;2.5;;;;;;;3.1;100.0;101560;;;;
2022/12/05 02:20:01;;;;;;;2.6;2.5;;;;;;;3.0;100.0;101560;;;;
2022/12/05 02:21:07;;;;;;;2.6;2.5;;;;;;;3.0;100.0;101560;;;;
2022/12/05 02:22:10;;;;;;;2.6;2.5;;;;;;;3.0;100.0;101570;;;;
2022/12/05 02:23:00;;;;;;;2.6;2.5;;;;;;;3.0;100.0;101570;;;;
2022/12/05 02:24:03;;;;;;;2.6;2.5;;;;;;;3.0;100.0;101570;;;;
2022/12/05 02:25:10;;;;;;;2.6;2.5;;;;;;;3.0;100.0;101570;;;;
2022/12/05 02:26:10;;;;;;;2.6;2.5;;;;;;;2.9;100.0;101570;;;;
2022/12/05 02:27:06;;;;;;;3.0;2.9;;;;;;;2.9;100.0;101570;;;;
2022/12/05 02:28:00;;;;;;;3.0;2.9;;;;;;;2.9;100.0;101560;;;;
2022/12/05 02:29:00;;;;;;;3.0;2.9;;;;;;;2.9;100.0;101560;;;;
2022/12/05 02:30:01;;;;;;;3.0;2.9;;;;;;;2.9;100.0;101560;;;;
2022/12/05 02:31:08;;;;;;;3.0;2.9;;;;;;;2.9;100.0;101560;;;;
2022/12/05 02:32:01;;;;;;;3.0;2.9;;;;;;;3.0;100.0;101560;;;;
2022/12/05 02:33:00;;;;;;;3.0;2.9;;;;;;;3.0;100.0;101560;;;;
2022/12/05 02:34:05;;;;;;;3.0;2.9;;;;;;;3.0;100.0;101560;;;;
2022/12/05 02:35:10;;;;;;;3.0;2.9;;;;;;;3.0;100.0;101560;;;;
2022/12/05 02:36:10;;;;;;;3.0;2.9;;;;;;;3.1;100.0;101560;;;;
2022/12/05 02:37:10;;;;;;;3.0;2.9;;;;;;;3.1;100.0;101560;;;;
2022/12/05 02:38:07;;;;;;;3.0;2.9;;;;;;;3.0;100.0;101560;;;;
2022/12/05 02:39:03;;;;;;;3.0;2.9;;;;;;;3.0;100.0;101560;;;;
2022/12/05 02:40:00;;;;;;;3.0;2.9;;;;;;;3.0;100.0;101560;;;;
2022/12/05 02:41:00;;;;;;;3.0;2.9;;;;;;;3.0;100.0;101560;;;;
2022/12/05 02:42:04;;;;;;;3.0;2.9;;;;;;;3.0;100.0;101560;;;;
2022/12/05 02:43:06;;;;;;;3.0;2.9;;;;;;;3.0;100.0;101560;;;;
2022/12/05 02:44:03;;;;;;;3.0;2.9;;;;;;;2.9;100.0;101560;;;;
2022/12/05 02:45:06;;;;;;;3.0;2.9;;;;;;;2.9;100.0;101560;;;;
2022/12/05 02:46:03;;;;;;;3.0;2.9;;;;;;;3.0;100.0;101560;;;;
2022/12/05 02:47:01;;;;;;;2.7;2.6;;;;;;;3.0;100.0;101560;;;;
2022/12/05 02:48:00;;;;;;;2.7;2.6;;;;;;;3.0;100.0;101560;;;;
2022/12/05 02:49:04;;;;;;;2.7;2.6;;;;;;;3.0;100.0;101560;;;;
2022/12/05 02:50:00;;;;;;;2.7;2.6;;;;;;;2.9;100.0;101560;;;;
2022/12/05 02:51:00;;;;;;;2.7;2.6;;;;;;;2.9;100.0;101560;;;;
2022/12/05 02:52:01;;;;;;;2.7;2.6;;;;;;;2.9;100.0;101560;;;;
2022/12/05 02:53:04;;;;;;;2.7;2.6;;;;;;;2.9;100.0;101560;;;;
2022/12/05 02:54:03;;;;;;;2.7;2.6;;;;;;;3.0;100.0;101560;;;;
2022/12/05 02:55:01;;;;;;;2.7;2.6;;;;;;;3.0;100.0;101560;;;;
2022/12/05 02:56:01;;;;;;;2.7;2.6;;;;;;;3.0;100.0;101560;;;;
2022/12/05 02:57:00;;;;;;;2.7;2.6;;;;;;;3.0;100.0;101560;;;;
2022/12/05 02:58:02;;;;;;;2.7;2.6;;;;;;;3.0;100.0;101570;;;;
2022/12/05 02:59:00;;;;;;;2.7;2.6;;;;;;;3.0;100.0;101570;;;;
2022/12/05 03:00:00;;;;;;;2.7;2.6;;;;;;;3.0;100.0;101570;;;;
2022/12/05 03:01:01;;;;;;;2.7;2.6;;;;;;;3.0;100.0;101570;;;;
2022/12/05 03:02:00;;;;;;;2.7;2.6;;;;;;;3.0;100.0;101570;;;;
2022/12/05 03:03:00;;;;;;;2.7;2.6;;;;;;;3.0;100.0;101570;;;;
2022/12/05 03:04:01;;;;;;;2.7;2.6;;;;;;;3.0;100.0;101570;;;;
2022/12/05 03:05:10;;;;;;;2.7;2.6;;;;;;;3.0;100.0;101570;;;;
2022/12/05 03:06:10;;;;;;;2.7;2.6;;;;;;;3.0;100.0;101570;;;;
2022/12/05 03:07:03;;;;;;;2.7;2.6;;;;;;;3.0;100.0;101570;;;;
2022/12/05 03:08:02;;;;;;;2.7;2.6;;;;;;;3.1;100.0;101570;;;;
2022/12/05 03:09:02;;;;;;;2.7;2.6;;;;;;;3.1;100.0;101570;;;;
2022/12/05 03:10:03;;;;;;;2.7;2.6;;;;;;;3.0;100.0;101570;;;;
2022/12/05 03:11:01;;;;;;;2.7;2.6;;;;;;;3.0;100.0;101570;;;;
2022/12/05 03:12:10;;;;;;;2.7;2.6;;;;;;;3.0;100.0;101570;;;;
2022/12/05 03:13:04;;;;;;;2.7;2.6;;;;;;;3.0;100.0;101570;;;;
2022/12/05 03:14:01;;;;;;;2.7;2.6;;;;;;;3.0;100.0;101570;;;;
2022/12/05 03:15:10;;;;;;;2.7;2.6;;;;;;;3.0;100.0;101570;;;;
2022/12/05 03:16:04;;;;;;;2.7;2.6;;;;;;;3.1;100.0;101570;;;;
2022/12/05 03:17:01;;;;;;;2.7;2.6;;;;;;;3.1;100.0;101570;;;;
2022/12/05 03:18:05;;;;;;;2.7;2.6;;;;;;;3.0;100.0;101570;;;;
2022/12/05 03:19:02;;;;;;;2.7;2.6;;;;;;;3.0;100.0;101570;;;;
2022/12/05 03:20:10;;;;;;;2.7;2.6;;;;;;;3.1;100.0;101570;;;;
2022/12/05 03:21:01;;;;;;;2.7;2.6;;;;;;;3.1;100.0;101570;;;;
2022/12/05 03:22:02;;;;;;;2.7;2.6;;;;;;;3.0;100.0;101570;;;;
2022/12/05 03:23:05;;;;;;;2.7;2.6;;;;;;;3.0;100.0;101570;;;;
2022/12/05 03:24:10;;;;;;;2.7;2.6;;;;;;;3.0;100.0;101570;;;;
2022/12/05 03:25:01;;;;;;;2.7;2.6;;;;;;;3.0;100.0;101570;;;;
2022/12/05 03:26:13;;;;;;;2.7;2.6;;;;;;;3.0;100.0;101570;;;;
2022/12/05 03:27:07;;;;;;;3.4;3.3;;;;;;;3.0;100.0;101570;;;;
2022/12/05 03:28:07;;;;;;;3.4;3.3;;;;;;;3.1;100.0;101560;;;;
2022/12/05 03:29:10;;;;;;;3.4;3.3;;;;;;;3.1;100.0;101560;;;;
2022/12/05 03:30:03;;;;;;;3.4;3.3;;;;;;;3.0;100.0;101560;;;;
2022/12/05 03:31:05;;;;;;;3.4;3.3;;;;;;;3.0;100.0;101560;;;;
2022/12/05 03:32:04;;;;;;;3.4;3.3;;;;;;;2.9;100.0;101570;;;;
2022/12/05 03:33:10;;;;;;;3.4;3.3;;;;;;;2.9;100.0;101570;;;;
2022/12/05 03:34:02;;;;;;;3.4;3.3;;;;;;;2.9;100.0;101560;;;;
2022/12/05 03:35:03;;;;;;;3.4;3.3;;;;;;;2.9;100.0;101560;;;;
2022/12/05 03:36:02;;;;;;;3.4;3.3;;;;;;;2.9;100.0;101560;;;;
2022/12/05 03:37:04;;;;;;;3.4;3.3;;;;;;;2.9;100.0;101560;;;;
2022/12/05 03:38:04;;;;;;;3.4;3.3;;;;;;;3.0;100.0;101560;;;;
2022/12/05 03:39:10;;;;;;;3.4;3.3;;;;;;;3.0;100.0;101560;;;;
2022/12/05 03:40:05;;;;;;;3.4;3.3;;;;;;;3.0;100.0;101560;;;;
2022/12/05 03:41:00;;;;;;;3.4;3.3;;;;;;;3.0;100.0;101560;;;;
2022/12/05 03:42:01;;;;;;;3.4;3.3;;;;;;;2.9;100.0;101560;;;;
2022/12/05 03:43:08;;;;;;;3.4;3.3;;;;;;;2.9;100.0;101560;;;;
2022/12/05 03:44:04;;;;;;;3.4;3.3;;;;;;;3.0;100.0;101570;;;;
2022/12/05 03:45:05;;;;;;;3.4;3.3;;;;;;;3.0;100.0;101570;;;;
2022/12/05 03:46:05;;;;;;;3.4;3.3;;;;;;;3.0;100.0;101570;;;;
2022/12/05 03:47:04;;;;;;;2.4;2.4;;;;;;;3.0;100.0;101570;;;;
2022/12/05 03:48:06;;;;;;;2.4;2.4;;;;;;;3.0;100.0;101570;;;;
2022/12/05 03:49:03;;;;;;;2.4;2.4;;;;;;;3.0;100.0;101570;;;;
2022/12/05 03:50:05;;;;;;;2.4;2.4;;;;;;;3.0;100.0;101570;;;;
2022/12/05 03:51:02;;;;;;;2.4;2.4;;;;;;;3.0;100.0;101570;;;;
2022/12/05 03:52:10;;;;;;;2.4;2.4;;;;;;;3.0;100.0;101560;;;;
2022/12/05 03:53:14;;;;;;;2.4;2.4;;;;;;;3.0;100.0;101560;;;;
2022/12/05 03:54:05;;;;;;;2.4;2.4;;;;;;;3.0;100.0;101570;;;;
2022/12/05 03:55:02;;;;;;;2.4;2.4;;;;;;;3.0;100.0;101570;;;;
2022/12/05 03:56:03;;;;;;;2.4;2.4;;;;;;;3.0;100.0;101560;;;;
2022/12/05 03:57:04;;;;;;;2.4;2.4;;;;;;;3.0;100.0;101560;;;;
2022/12/05 03:58:04;;;;;;;2.4;2.4;;;;;;;3.0;100.0;101570;;;;
2022/12/05 03:59:05;;;;;;;2.4;2.4;;;;;;;3.0;100.0;101570;;;;
2022/12/05 04:00:08;;;;;;;2.4;2.4;;;;;;;3.1;100.0;101570;;;;
2022/12/05 04:01:02;;;;;;;2.4;2.4;;;;;;;3.1;100.0;101570;;;;
2022/12/05 04:02:03;;;;;;;2.4;2.4;;;;;;;3.1;100.0;101570;;;;
2022/12/05 04:03:07;;;;;;;2.4;2.4;;;;;;;3.1;100.0;101570;;;;
2022/12/05 04:04:06;;;;;;;2.4;2.4;;;;;;;3.0;100.0;101570;;;;
2022/12/05 04:05:07;;;;;;;2.4;2.4;;;;;;;3.0;100.0;101570;;;;
2022/12/05 04:06:03;;;;;;;2.4;2.4;;;;;;;3.1;100.0;101570;;;;
2022/12/05 04:07:03;;;;;;;2.4;2.4;;;;;;;3.1;100.0;101570;;;;
2022/12/05 04:08:03;;;;;;;2.4;2.4;;;;;;;3.0;100.0;101570;;;;
2022/12/05 04:09:17;;;;;;;2.4;2.4;;;;;;;3.1;100.0;101570;;;;
2022/12/05 04:10:04;;;;;;;2.4;2.4;;;;;;;3.1;100.0;101570;;;;
2022/12/05 04:11:02;;;;;;;2.4;2.4;;;;;;;3.1;100.0;101570;;;;
2022/12/05 04:12:02;;;;;;;2.4;2.4;;;;;;;3.2;100.0;101570;;;;
2022/12/05 04:13:16;;;;;;;2.4;2.4;;;;;;;3.2;100.0;101570;;;;
2022/12/05 04:14:04;;;;;;;2.4;2.4;;;;;;;3.0;100.0;101570;;;;
2022/12/05 04:15:05;;;;;;;2.4;2.4;;;;;;;3.0;100.0;101570;;;;
2022/12/05 04:17:03;;;;;;;2.4;2.4;;;;;;;3.2;100.0;101570;;;;
2022/12/05 04:18:00;;;;;;;2.4;2.4;;;;;;;3.1;100.0;101580;;;;
2022/12/05 04:19:04;;;;;;;2.4;2.4;;;;;;;3.1;100.0;101580;;;;
2022/12/05 04:22:00;;;;;;;2.4;2.4;;;;;;;3.1;100.0;101580;;;;
2022/12/05 04:23:00;;;;;;;2.4;2.4;;;;;;;3.1;100.0;101580;;;;
2022/12/05 04:26:05;;;;;;;2.4;2.4;;;;;;;3.0;100.0;101580;;;;
2022/12/05 04:27:05;;;;;;;2.6;2.5;;;;;;;3.0;100.0;101580;;;;
2022/12/05 04:28:08;;;;;;;2.6;2.5;;;;;;;3.1;100.0;101580;;;;
2022/12/05 04:29:06;;;;;;;2.6;2.5;;;;;;;3.1;100.0;101580;;;;
2022/12/05 04:30:06;;;;;;;2.6;2.5;;;;;;;3.1;100.0;101580;;;;
2022/12/05 04:31:03;;;;;;;2.6;2.5;;;;;;;3.1;100.0;101580;;;;
2022/12/05 04:32:05;;;;;;;2.6;2.5;;;;;;;3.1;100.0;101580;;;;
2022/12/05 04:33:04;;;;;;;2.6;2.5;;;;;;;3.1;100.0;101580;;;;
2022/12/05 04:34:04;;;;;;;2.6;2.5;;;;;;;3.1;100.0;101580;;;;
2022/12/05 04:35:02;;;;;;;2.6;2.5;;;;;;;3.1;100.0;101580;;;;
2022/12/05 04:36:06;;;;;;;2.6;2.5;;;;;;;3.1;100.0;101580;;;;
2022/12/05 04:37:03;;;;;;;2.6;2.5;;;;;;;3.1;100.0;101580;;;;
2022/12/05 04:38:05;;;;;;;2.6;2.5;;;;;;;3.1;100.0;101580;;;;
2022/12/05 04:39:04;;;;;;;2.6;2.5;;;;;;;3.1;100.0;101580;;;;
2022/12/05 04:40:06;;;;;;;2.6;2.5;;;;;;;3.0;100.0;101580;;;;
2022/12/05 04:41:02;;;;;;;2.6;2.5;;;;;;;3.0;100.0;101580;;;;
2022/12/05 04:42:03;;;;;;;2.6;2.5;;;;;;;3.0;100.0;101590;;;;
2022/12/05 04:43:01;;;;;;;2.6;2.5;;;;;;;3.0;100.0;101590;;;;
2022/12/05 04:44:02;;;;;;;2.6;2.5;;;;;;;3.1;100.0;101590;;;;
2022/12/05 04:45:04;;;;;;;2.6;2.5;;;;;;;3.1;100.0;101590;;;;
2022/12/05 04:46:03;;;;;;;2.6;2.5;;;;;;;3.1;100.0;101590;;;;
2022/12/05 04:47:02;;;;;;;2.8;2.7;;;;;;;3.1;100.0;101590;;;;
2022/12/05 04:48:03;;;;;;;2.8;2.7;;;;;;;3.1;100.0;101590;;;;
2022/12/05 04:49:02;;;;;;;2.8;2.7;;;;;;;3.1;100.0;101590;;;;
2022/12/05 04:50:00;;;;;;;2.8;2.7;;;;;;;3.2;100.0;101580;;;;
2022/12/05 04:51:00;;;;;;;2.8;2.7;;;;;;;3.2;100.0;101580;;;;
2022/12/05 04:52:02;;;;;;;2.8;2.7;;;;;;;3.2;100.0;101590;;;;
2022/12/05 04:53:01;;;;;;;2.8;2.7;;;;;;;3.2;100.0;101590;;;;
2022/12/05 04:54:03;;;;;;;2.8;2.7;;;;;;;3.2;100.0;101590;;;;
2022/12/05 04:55:04;;;;;;;2.8;2.7;;;;;;;3.2;100.0;101590;;;;
2022/12/05 04:56:01;;;;;;;2.8;2.7;;;;;;;3.1;100.0;101590;;;;
2022/12/05 04:57:06;;;;;;;2.8;2.7;;;;;;;3.1;100.0;101590;;;;
2022/12/05 04:58:09;;;;;;;2.8;2.7;;;;;;;3.2;100.0;101580;;;;
2022/12/05 04:59:00;;;;;;;2.8;2.7;;;;;;;3.2;100.0;101580;;;;
2022/12/05 05:00:01;;;;;;;2.8;2.7;;;;;;;3.2;100.0;101580;;;;
2022/12/05 05:01:03;;;;;;;2.8;2.7;;;;;;;3.2;100.0;101580;;;;
2022/12/05 05:02:06;;;;;;;2.8;2.7;;;;;;;3.2;100.0;101580;;;;
2022/12/05 05:03:06;;;;;;;2.8;2.7;;;;;;;3.2;100.0;101580;;;;
2022/12/05 05:04:06;;;;;;;2.8;2.7;;;;;;;3.3;100.0;101580;;;;
2022/12/05 05:05:01;;;;;;;2.8;2.7;;;;;;;3.3;100.0;101580;;;;
2022/12/05 05:06:01;;;;;;;2.8;2.7;;;;;;;3.2;100.0;101580;;;;
2022/12/05 05:07:04;;;;;;;2.2;2.2;;;;;;;3.2;100.0;101580;;;;
2022/12/05 05:08:00;;;;;;;2.2;2.2;;;;;;;3.2;100.0;101580;;;;
2022/12/05 05:10:01;;;;;;;2.2;2.2;;;;;;;3.2;100.0;101590;;;;
2022/12/05 05:11:05;;;;;;;2.2;2.2;;;;;;;3.2;100.0;101590;;;;
2022/12/05 05:12:00;;;;;;;2.2;2.2;;;;;;;3.1;100.0;101590;;;;
2022/12/05 05:13:00;;;;;;;2.2;2.2;;;;;;;3.1;100.0;101590;;;;
2022/12/05 05:14:00;;;;;;;2.2;2.2;;;;;;;3.2;100.0;101590;;;;
2022/12/05 05:16:00;;;;;;;2.2;2.2;;;;;;;3.3;100.0;101590;;;;
2022/12/05 05:17:00;;;;;;;2.2;2.2;;;;;;;3.3;100.0;101590;;;;
2022/12/05 05:18:00;;;;;;;2.2;2.2;;;;;;;3.2;100.0;101590;;;;
2022/12/05 05:19:00;;;;;;;2.2;2.2;;;;;;;3.2;100.0;101590;;;;
2022/12/05 05:21:00;;;;;;;2.2;2.2;;;;;;;3.2;100.0;101590;;;;
2022/12/05 05:22:00;;;;;;;2.2;2.2;;;;;;;3.2;100.0;101590;;;;
2022/12/05 05:23:00;;;;;;;2.2;2.2;;;;;;;3.2;100.0;101590;;;;
2022/12/05 05:24:00;;;;;;;2.2;2.2;;;;;;;3.3;100.0;101590;;;;
2022/12/05 05:25:00;;;;;;;2.2;2.2;;;;;;;3.3;100.0;101590;;;;
2022/12/05 05:26:00;;;;;;;2.2;2.2;;;;;;;3.3;100.0;101590;;;;
2022/12/05 05:27:00;;;;;;;2.8;2.7;;;;;;;3.3;100.0;101590;;;;
2022/12/05 05:28:00;;;;;;;2.8;2.7;;;;;;;3.3;100.0;101590;;;;
2022/12/05 05:29:00;;;;;;;2.8;2.7;;;;;;;3.3;100.0;101590;;;;
2022/12/05 05:30:01;;;;;;;2.8;2.7;;;;;;;3.2;100.0;101590;;;;
2022/12/05 05:31:01;;;;;;;2.8;2.7;;;;;;;3.2;100.0;101590;;;;
2022/12/05 05:32:00;;;;;;;2.8;2.7;;;;;;;3.3;100.0;101590;;;;
2022/12/05 05:33:00;;;;;;;2.8;2.7;;;;;;;3.3;100.0;101590;;;;
2022/12/05 05:34:09;;;;;;;2.8;2.7;;;;;;;3.4;100.0;101590;;;;
2022/12/05 05:35:00;;;;;;;2.8;2.7;;;;;;;3.4;100.0;101590;;;;
2022/12/05 05:36:02;;;;;;;2.8;2.7;;;;;;;3.3;100.0;101590;;;;
2022/12/05 05:37:00;;;;;;;2.8;2.7;;;;;;;3.3;100.0;101590;;;;
2022/12/05 05:38:00;;;;;;;2.8;2.7;;;;;;;3.2;100.0;101590;;;;
2022/12/05 05:39:01;;;;;;;2.8;2.7;;;;;;;3.2;100.0;101590;;;;
2022/12/05 05:40:05;;;;;;;2.8;2.7;;;;;;;3.3;100.0;101600;;;;
2022/12/05 05:41:00;;;;;;;2.8;2.7;;;;;;;3.3;100.0;101600;;;;
2022/12/05 05:42:00;;;;;;;2.8;2.7;;;;;;;3.4;100.0;101590;;;;
2022/12/05 05:43:00;;;;;;;2.8;2.7;;;;;;;3.4;100.0;101590;;;;
2022/12/05 05:44:00;;;;;;;2.8;2.7;;;;;;;3.3;100.0;101600;;;;
2022/12/05 05:45:00;;;;;;;2.8;2.7;;;;;;;3.3;100.0;101600;;;;
2022/12/05 05:46:02;;;;;;;2.8;2.7;;;;;;;3.3;100.0;101600;;;;
2022/12/05 05:47:00;;;;;;;3.1;3.0;;;;;;;3.3;100.0;101600;;;;
2022/12/05 05:48:00;;;;;;;3.1;3.0;;;;;;;3.3;100.0;101600;;;;
2022/12/05 05:49:00;;;;;;;3.1;3.0;;;;;;;3.3;100.0;101600;;;;
2022/12/05 05:50:01;;;;;;;3.1;3.0;;;;;;;3.4;100.0;101600;;;;
2022/12/05 05:51:00;;;;;;;3.1;3.0;;;;;;;3.4;100.0;101600;;;;
2022/12/05 05:52:00;;;;;;;3.1;3.0;;;;;;;3.4;100.0;101600;;;;
2022/12/05 05:53:00;;;;;;;3.1;3.0;;;;;;;3.4;100.0;101600;;;;
2022/12/05 05:54:00;;;;;;;3.1;3.0;;;;;;;3.3;100.0;101590;;;;
2022/12/05 05:55:00;;;;;;;3.1;3.0;;;;;;;3.3;100.0;101590;;;;
2022/12/05 05:56:02;;;;;;;3.1;3.0;;;;;;;3.3;100.0;101600;;;;
2022/12/05 05:57:00;;;;;;;3.1;3.0;;;;;;;3.3;100.0;101600;;;;
2022/12/05 05:58:00;;;;;;;3.1;3.0;;;;;;;3.3;100.0;101600;;;;
2022/12/05 05:59:01;;;;;;;3.1;3.0;;;;;;;3.3;100.0;101600;;;;
2022/12/05 06:00:01;;;;;;;3.1;3.0;;;;;;;3.4;100.0;101590;;;;
2022/12/05 06:01:09;;;;;;;3.1;3.0;;;;;;;3.4;100.0;101590;;;;
2022/12/05 06:02:00;;;;;;;3.1;3.0;;;;;;;3.3;100.0;101600;;;;
2022/12/05 06:03:00;;;;;;;3.1;3.0;;;;;;;3.3;100.0;101600;;;;
2022/12/05 06:04:00;;;;;;;3.1;3.0;;;;;;;3.5;100.0;101600;;;;
2022/12/05 06:05:00;;;;;;;3.1;3.0;;;;;;;3.5;100.0;101600;;;;
2022/12/05 06:06:02;;;;;;;2.5;2.5;;;;;;;3.3;100.0;101600;;;;
2022/12/05 06:07:00;;;;;;;2.5;2.5;;;;;;;3.3;100.0;101600;;;;
2022/12/05 06:08:00;;;;;;;2.5;2.5;;;;;;;3.4;100.0;101600;;;;
2022/12/05 06:09:00;;;;;;;2.5;2.5;;;;;;;3.4;100.0;101600;;;;
2022/12/05 06:10:01;;;;;;;2.5;2.5;;;;;;;3.4;100.0;101590;;;;
2022/12/05 06:11:03;;;;;;;2.5;2.5;;;;;;;3.4;100.0;101590;;;;
2022/12/05 06:12:00;;;;;;;2.5;2.5;;;;;;;3.4;100.0;101600;;;;
2022/12/05 06:13:00;;;;;;;2.5;2.5;;;;;;;3.4;100.0;101600;;;;
2022/12/05 06:14:00;;;;;;;2.5;2.5;;;;;;;3.4;100.0;101600;;;;
2022/12/05 06:15:00;;;;;;;2.5;2.5;;;;;;;3.4;100.0;101600;;;;
2022/12/05 06:16:00;;;;;;;2.5;2.5;;;;;;;3.5;100.0;101600;;;;
2022/12/05 06:17:00;;;;;;;2.5;2.5;;;;;;;3.5;100.0;101600;;;;
2022/12/05 06:18:00;;;;;;;2.5;2.5;;;;;;;3.4;100.0;101610;;;;
2022/12/05 06:19:00;;;;;;;2.5;2.5;;;;;;;3.4;100.0;101610;;;;
2022/12/05 06:20:00;;;;;;;2.5;2.5;;;;;;;3.5;100.0;101600;;;;
2022/12/05 06:21:00;;;;;;;2.5;2.5;;;;;;;3.5;100.0;101600;;;;
2022/12/05 06:22:00;;;;;;;2.5;2.5;;;;;;;3.4;100.0;101610;;;;
2022/12/05 06:23:00;;;;;;;2.5;2.5;;;;;;;3.4;100.0;101610;;;;
2022/12/05 06:24:00;;;;;;;2.5;2.5;;;;;;;3.5;100.0;101610;;;;
2022/12/05 06:25:00;;;;;;;2.5;2.5;;;;;;;3.5;100.0;101610;;;;
2022/12/05 06:26:00;;;;;;;2.9;2.8;;;;;;;3.5;100.0;101610;;;;
2022/12/05 06:27:00;;;;;;;2.9;2.8;;;;;;;3.5;100.0;101610;;;;
2022/12/05 06:28:00;;;;;;;2.9;2.8;;;;;;;3.5;100.0;101610;;;;
2022/12/05 06:29:00;;;;;;;2.9;2.8;;;;;;;3.5;100.0;101610;;;;
2022/12/05 06:30:01;;;;;;;2.9;2.8;;;;;;;3.5;100.0;101610;;;;
2022/12/05 06:31:05;;;;;;;2.9;2.8;;;;;;;3.5;100.0;101610;;;;
2022/12/05 06:32:00;;;;;;;2.9;2.8;;;;;;;3.5;100.0;101610;;;;
2022/12/05 06:33:00;;;;;;;2.9;2.8;;;;;;;3.5;100.0;101610;;;;
2022/12/05 06:34:01;;;;;;;2.9;2.8;;;;;;;3.5;100.0;101620;;;;
2022/12/05 06:35:06;;;;;;;2.9;2.8;;;;;;;3.5;100.0;101620;;;;
2022/12/05 06:36:01;;;;;;;2.9;2.8;;;;;;;3.5;100.0;101620;;;;
2022/12/05 06:37:00;;;;;;;2.9;2.8;;;;;;;3.5;100.0;101620;;;;